Time;durP1;ratioP1;P1;durP2;ratioP2;P2;SDS_P1;SDS_P2;PMS_P1;PMS_P2;Temp;Humidity;BMP_temperature;BMP_pressure;BME280_temperature;BME280_humidity;BME280_pressure;Samples;Min_cycle;Max_cycle;Signal;HPM_P1;HPM_P2
2024/04/14 00:01:44;;;;;;;20.55;4.25;;;;;;;11.50;100.00;102145.75;5563411;25;20008;-77
2024/04/14 00:04:09;;;;;;;21.67;4.18;;;;;;;11.43;100.00;102155.16;5563578;25;20003;-77
2024/04/14 00:06:34;;;;;;;18.75;3.78;;;;;;;11.37;100.00;102144.94;5563528;25;20065;-77
2024/04/14 00:09:00;;;;;;;16.67;3.67;;;;;;;11.33;100.00;102149.66;5563515;25;20009;-76
2024/04/14 00:11:25;;;;;;;23.88;3.72;;;;;;;11.28;100.00;102160.63;5530368;25;19993;-78
2024/04/14 00:13:51;;;;;;;21.35;4.65;;;;;;;11.25;100.00;102154.69;5563780;25;20004;-78
2024/04/14 00:16:16;;;;;;;20.17;3.80;;;;;;;11.23;100.00;102156.63;5530738;25;19999;-76
2024/04/14 00:18:41;;;;;;;22.75;4.45;;;;;;;11.19;100.00;102163.13;5563514;25;20064;-76
2024/04/14 00:21:07;;;;;;;17.15;3.35;;;;;;;11.13;100.00;102169.72;5562922;25;20389;-76
2024/04/14 00:23:32;;;;;;;22.20;3.35;;;;;;;11.07;100.00;102165.69;5562992;25;19993;-76
2024/04/14 00:25:58;;;;;;;14.05;3.33;;;;;;;11.01;100.00;102167.97;5562483;25;19997;-76
2024/04/14 00:28:23;;;;;;;20.00;3.40;;;;;;;10.96;100.00;102172.75;5562257;25;20134;-76
2024/04/14 00:30:48;;;;;;;15.93;2.97;;;;;;;10.89;100.00;102172.34;5530502;25;20003;-76
2024/04/14 00:33:14;;;;;;;11.73;2.58;;;;;;;10.81;100.00;102180.00;5566647;25;20425;-76
2024/04/14 00:35:41;;;;;;;16.15;2.38;;;;;;;10.72;100.00;102181.53;5566902;25;20318;-76
2024/04/14 00:38:06;;;;;;;9.73;2.13;;;;;;;10.68;100.00;102183.53;5566035;25;19997;-78
2024/04/14 00:40:32;;;;;;;8.73;1.95;;;;;;;10.64;100.00;102192.69;5567234;25;19997;-78
2024/04/14 00:42:57;;;;;;;8.05;2.10;;;;;;;10.59;100.00;102181.53;5566887;25;20075;-78
2024/04/14 00:45:25;;;;;;;4.63;1.35;;;;;;;10.52;100.00;102181.06;5533031;25;20004;-78
2024/04/14 00:47:51;;;;;;;7.93;1.77;;;;;;;10.43;100.00;102184.38;5566234;25;20477;-78
2024/04/14 00:50:17;;;;;;;10.65;1.73;;;;;;;10.34;100.00;102185.00;5566405;25;20065;-78
2024/04/14 00:52:43;;;;;;;9.65;1.90;;;;;;;10.24;100.00;102188.28;5567663;25;20331;-76
2024/04/14 00:55:09;;;;;;;11.45;1.92;;;;;;;10.15;100.00;102188.91;5565909;25;20026;-75
2024/04/14 00:57:34;;;;;;;11.05;2.05;;;;;;;10.08;100.00;102195.56;5566179;25;20127;-76
2024/04/14 01:00:01;;;;;;;6.03;1.92;;;;;;;10.00;100.00;102200.53;5565944;25;20347;-76
2024/04/14 01:02:27;;;;;;;16.17;2.40;;;;;;;9.91;100.00;102203.81;5566381;25;20020;-76
2024/04/14 01:04:52;;;;;;;14.65;2.30;;;;;;;9.82;100.00;102192.84;5566173;25;19996;-76
2024/04/14 01:07:18;;;;;;;12.73;1.77;;;;;;;9.79;100.00;102197.50;5533017;25;19997;-77
2024/04/14 01:09:44;;;;;;;12.13;2.08;;;;;;;9.72;100.00;102202.38;5565742;25;20034;-76
2024/04/14 01:12:09;;;;;;;10.73;2.03;;;;;;;9.65;100.00;102214.34;5566482;25;20008;-76
2024/04/14 01:14:34;;;;;;;11.98;2.17;;;;;;;9.59;100.00;102217.41;5565670;25;20393;-77
2024/04/14 01:17:00;;;;;;;9.15;2.00;;;;;;;9.57;100.00;102220.16;5532997;25;19997;-76
2024/04/14 01:19:25;;;;;;;11.48;2.15;;;;;;;9.56;100.00;102220.28;5565284;25;20423;-76
2024/04/14 01:21:51;;;;;;;14.65;1.98;;;;;;;9.52;100.00;102223.13;5565835;25;20441;-76
2024/04/14 01:24:16;;;;;;;10.95;2.45;;;;;;;9.48;100.00;102226.94;5565981;25;20003;-76
2024/04/14 01:26:41;;;;;;;10.52;2.65;;;;;;;9.41;100.00;102220.28;5565568;25;20068;-76
2024/04/14 01:29:07;;;;;;;10.75;2.38;;;;;;;9.35;100.00;102218.03;5565613;25;20029;-77
2024/04/14 01:31:32;;;;;;;6.32;1.70;;;;;;;9.30;100.00;102222.75;5565960;25;20004;-76
2024/04/14 01:33:58;;;;;;;10.85;2.00;;;;;;;9.27;100.00;102220.31;5565821;25;20004;-76
2024/04/14 01:36:23;;;;;;;13.38;2.45;;;;;;;9.24;100.00;102218.72;5566656;25;20007;-78
2024/04/14 01:38:48;;;;;;;8.18;1.35;;;;;;;9.21;100.00;102215.38;5532945;25;19992;-76
2024/04/14 01:41:14;;;;;;;11.73;1.85;;;;;;;9.18;100.00;102222.59;5532551;25;20000;-76
2024/04/14 01:43:39;;;;;;;10.80;1.83;;;;;;;9.15;100.00;102230.75;5564235;25;20008;-75
2024/04/14 01:46:04;;;;;;;20.63;3.13;;;;;;;9.11;100.00;102229.25;5565440;25;20000;-78
2024/04/14 01:48:30;;;;;;;12.85;1.80;;;;;;;9.07;100.00;102234.84;5566221;25;20004;-78
2024/04/14 01:50:55;;;;;;;17.67;2.17;;;;;;;9.04;100.00;102227.06;5532811;25;19996;-78
2024/04/14 01:53:21;;;;;;;19.13;2.17;;;;;;;9.00;100.00;102229.03;5565612;25;19997;-77
2024/04/14 01:55:47;;;;;;;13.63;2.00;;;;;;;8.98;100.00;102229.13;5565740;25;20008;-75
2024/04/14 01:58:13;;;;;;;10.30;2.38;;;;;;;8.97;100.00;102232.75;5565365;25;20346;-76
2024/04/14 02:00:38;;;;;;;9.43;2.00;;;;;;;8.93;100.00;102233.88;5565477;25;19993;-77
2024/04/14 02:03:04;;;;;;;15.85;1.90;;;;;;;8.91;100.00;102230.50;5532605;25;19997;-75
2024/04/14 02:05:29;;;;;;;7.75;1.80;;;;;;;8.88;100.00;102233.31;5565272;25;20421;-76
2024/04/14 02:07:54;;;;;;;8.85;1.92;;;;;;;8.89;100.00;102228.88;5532481;25;20026;-76
2024/04/14 02:10:20;;;;;;;14.52;1.88;;;;;;;8.87;100.00;102238.69;5565292;25;20025;-76
2024/04/14 02:12:45;;;;;;;12.45;1.80;;;;;;;8.88;100.00;102235.13;5565093;25;20452;-76
2024/04/14 02:15:11;;;;;;;8.63;1.60;;;;;;;8.93;100.00;102243.66;5565025;25;19997;-76
2024/04/14 02:17:36;;;;;;;8.18;1.73;;;;;;;9.00;100.00;102243.19;5564928;25;20455;-76
2024/04/14 02:20:01;;;;;;;10.80;1.90;;;;;;;9.04;100.00;102250.97;5564950;25;20433;-76
2024/04/14 02:22:27;;;;;;;9.90;1.92;;;;;;;9.04;100.00;102249.16;5532069;25;20000;-78
2024/04/14 02:24:52;;;;;;;10.65;1.67;;;;;;;9.05;100.00;102253.53;5564920;25;20000;-77
2024/04/14 02:27:17;;;;;;;12.05;2.42;;;;;;;9.07;100.00;102248.97;5564753;25;19997;-76
2024/04/14 02:29:43;;;;;;;13.07;1.77;;;;;;;9.12;100.00;102253.97;5565180;25;20056;-76
2024/04/14 02:32:08;;;;;;;13.38;1.73;;;;;;;9.20;100.00;102266.81;5565225;25;20000;-76
2024/04/14 02:34:34;;;;;;;6.35;1.50;;;;;;;9.25;100.00;102272.69;5564528;25;20000;-76
2024/04/14 02:36:59;;;;;;;10.55;2.22;;;;;;;9.27;100.00;102265.44;5565459;25;20009;-76
2024/04/14 02:39:24;;;;;;;14.63;2.08;;;;;;;9.29;100.00;102263.56;5564913;25;19993;-76
2024/04/14 02:41:50;;;;;;;7.50;1.65;;;;;;;9.28;100.00;102261.84;5564567;25;20442;-76
2024/04/14 02:44:16;;;;;;;14.35;1.80;;;;;;;9.30;100.00;102260.81;5564563;25;20003;-76
2024/04/14 02:46:43;;;;;;;13.77;2.10;;;;;;;9.30;100.00;102260.81;5532360;25;20033;-76
2024/04/14 02:49:08;;;;;;;5.53;1.42;;;;;;;9.30;100.00;102262.59;5564558;25;20007;-76
2024/04/14 02:51:34;;;;;;;7.68;1.92;;;;;;;9.30;100.00;102267.91;5532037;25;20001;-76
2024/04/14 02:53:59;;;;;;;18.05;2.10;;;;;;;9.25;100.00;102262.91;5563745;25;20007;-76
2024/04/14 02:56:25;;;;;;;11.18;1.90;;;;;;;9.23;100.00;102266.63;5564619;25;20024;-76
2024/04/14 02:58:50;;;;;;;10.93;1.85;;;;;;;9.19;100.00;102276.56;5564756;25;20443;-76
2024/04/14 03:01:17;;;;;;;11.63;1.65;;;;;;;9.18;100.00;102281.03;5564584;25;19992;-76
2024/04/14 03:03:44;;;;;;;10.82;1.95;;;;;;;9.24;100.00;102278.94;5564224;25;19992;-76
2024/04/14 03:06:09;;;;;;;10.60;1.77;;;;;;;9.30;100.00;102289.16;5564838;25;20039;-76
2024/04/14 03:08:35;;;;;;;7.03;2.47;;;;;;;9.35;100.00;102295.06;5564548;25;20401;-76
2024/04/14 03:11:01;;;;;;;9.70;1.67;;;;;;;9.40;100.00;102285.00;5564233;25;20436;-76
2024/04/14 03:13:26;;;;;;;9.60;1.83;;;;;;;9.44;100.00;102275.03;5564022;25;19992;-77
2024/04/14 03:15:52;;;;;;;8.88;1.80;;;;;;;9.50;100.00;102274.66;5564041;25;19996;-78
2024/04/14 03:18:18;;;;;;;10.70;1.73;;;;;;;9.52;100.00;102276.28;5564202;25;20130;-76
2024/04/14 03:20:55;;;;;;;8.38;1.80;;;;;;;9.53;100.00;102283.28;5564205;25;20317;-77
2024/04/14 03:23:20;;;;;;;13.73;1.98;;;;;;;9.53;100.00;102282.44;5564461;25;20000;-77
2024/04/14 03:25:46;;;;;;;12.60;1.48;;;;;;;9.53;100.00;102285.09;5563415;25;20004;-78
2024/04/14 03:28:11;;;;;;;7.35;1.65;;;;;;;9.56;100.00;102295.50;5530916;25;19997;-76
2024/04/14 03:30:36;;;;;;;10.18;1.92;;;;;;;9.58;100.00;102293.59;5564428;25;19999;-77
2024/04/14 03:33:02;;;;;;;8.35;1.45;;;;;;;9.57;100.00;102291.03;5564914;25;19996;-81
2024/04/14 03:35:27;;;;;;;10.35;2.00;;;;;;;9.60;100.00;102281.09;5500000;25;20437;-78
2024/04/14 03:37:52;;;;;;;10.38;1.90;;;;;;;9.62;100.00;102288.97;5530732;25;20025;-77
2024/04/14 03:40:18;;;;;;;9.63;2.30;;;;;;;9.61;100.00;102298.72;5563452;25;19993;-77
2024/04/14 03:42:43;;;;;;;7.03;1.70;;;;;;;9.61;100.00;102284.59;5563575;25;20022;-78
2024/04/14 03:45:09;;;;;;;7.15;1.45;;;;;;;9.62;100.00;102291.63;5530810;25;19992;-78
2024/04/14 03:47:35;;;;;;;15.68;2.40;;;;;;;9.59;100.00;102290.00;5563733;25;20016;-76
2024/04/14 03:50:02;;;;;;;9.85;1.95;;;;;;;9.59;100.00;102291.81;5563203;25;19996;-77
2024/04/14 03:52:27;;;;;;;8.05;1.40;;;;;;;9.56;100.00;102294.69;5563830;25;19996;-80
2024/04/14 03:54:52;;;;;;;14.45;2.08;;;;;;;9.57;100.00;102291.03;5530121;25;19999;-78
2024/04/14 03:57:17;;;;;;;9.68;1.60;;;;;;;9.58;100.00;102288.28;5530569;25;20345;-77
2024/04/14 03:59:44;;;;;;;13.65;2.10;;;;;;;9.57;100.00;102301.66;5563459;25;20290;-76
2024/04/14 04:02:10;;;;;;;14.55;2.00;;;;;;;9.57;100.00;102306.97;5531191;25;19996;-77
2024/04/14 04:04:35;;;;;;;12.25;2.38;;;;;;;9.55;100.00;102306.25;5562829;25;20421;-75
2024/04/14 04:07:01;;;;;;;10.95;2.45;;;;;;;9.51;100.00;102297.63;5565610;25;19996;-75
2024/04/14 04:09:26;;;;;;;8.02;1.85;;;;;;;9.49;100.00;102300.38;5566804;25;20008;-76
2024/04/14 04:11:52;;;;;;;10.73;1.63;;;;;;;9.48;100.00;102295.13;5566377;25;20008;-76
2024/04/14 04:14:17;;;;;;;13.70;1.98;;;;;;;9.45;100.00;102295.31;5567279;25;20001;-76
2024/04/14 04:16:43;;;;;;;12.00;2.70;;;;;;;9.43;100.00;102295.41;5533776;25;20033;-76
2024/04/14 04:19:08;;;;;;;12.32;2.03;;;;;;;9.44;100.00;102305.09;5567660;25;20420;-76
2024/04/14 04:21:33;;;;;;;11.85;2.17;;;;;;;9.43;100.00;102298.06;5566320;25;20068;-76
2024/04/14 04:23:59;;;;;;;10.93;1.77;;;;;;;9.43;100.00;102303.38;5566624;25;20023;-76
2024/04/14 04:26:24;;;;;;;7.35;1.67;;;;;;;9.43;100.00;102303.38;5566781;25;20068;-76
2024/04/14 04:28:50;;;;;;;11.02;1.70;;;;;;;9.42;100.00;102311.47;5534126;25;20004;-76
2024/04/14 04:31:15;;;;;;;12.10;2.05;;;;;;;9.41;100.00;102315.09;5503204;25;20000;-76
2024/04/14 04:33:41;;;;;;;9.88;2.17;;;;;;;9.39;100.00;102309.88;5566668;25;20022;-76
2024/04/14 04:36:07;;;;;;;11.55;2.25;;;;;;;9.39;100.00;102312.53;5567306;25;20004;-76
2024/04/14 04:38:32;;;;;;;14.15;1.83;;;;;;;9.38;100.00;102315.28;5566533;25;19996;-76
2024/04/14 04:40:57;;;;;;;12.35;1.98;;;;;;;9.38;100.00;102304.66;5502675;25;20005;-76
2024/04/14 04:43:24;;;;;;;12.88;1.85;;;;;;;9.36;100.00;102307.41;5566771;25;19996;-76
2024/04/14 04:45:49;;;;;;;7.25;1.33;;;;;;;9.35;100.00;102313.66;5566722;25;19997;-77
2024/04/14 04:48:15;;;;;;;11.00;1.60;;;;;;;9.32;100.00;102316.50;5566639;25;20421;-78
2024/04/14 04:50:44;;;;;;;14.77;1.80;;;;;;;9.28;100.00;102322.94;5567832;25;19993;-78
2024/04/14 04:53:09;;;;;;;8.20;2.05;;;;;;;9.22;100.00;102321.50;5566985;25;20005;-77
2024/04/14 04:55:34;;;;;;;8.00;1.55;;;;;;;9.18;100.00;102327.94;5568428;25;20009;-76
2024/04/14 04:58:00;;;;;;;17.58;2.08;;;;;;;9.16;100.00;102319.25;5566512;25;19997;-78
2024/04/14 05:00:25;;;;;;;7.88;1.73;;;;;;;9.16;100.00;102321.91;5566439;25;20482;-76
2024/04/14 05:02:50;;;;;;;10.52;1.50;;;;;;;9.14;100.00;102327.31;5566804;25;19993;-76
2024/04/14 05:05:16;;;;;;;7.53;1.80;;;;;;;9.15;100.00;102330.78;5567251;25;20414;-76
2024/04/14 05:07:41;;;;;;;14.00;2.15;;;;;;;9.16;100.00;102325.38;5566755;25;20428;-76
2024/04/14 05:10:07;;;;;;;10.13;1.95;;;;;;;9.14;100.00;102334.41;5533018;25;20324;-76
2024/04/14 05:12:32;;;;;;;14.00;2.03;;;;;;;9.13;100.00;102335.34;5533229;25;20004;-76
2024/04/14 05:14:57;;;;;;;13.88;1.90;;;;;;;9.12;100.00;102330.97;5566584;25;20008;-76
2024/04/14 05:17:23;;;;;;;12.18;2.63;;;;;;;9.11;100.00;102335.44;5533028;25;20302;-76
2024/04/14 05:19:48;;;;;;;9.52;1.70;;;;;;;9.10;100.00;102331.06;5566466;25;20413;-76
2024/04/14 05:22:13;;;;;;;16.45;2.20;;;;;;;9.09;100.00;102332.06;5565695;25;19993;-76
2024/04/14 05:24:39;;;;;;;22.17;2.33;;;;;;;9.11;100.00;102332.81;5565665;25;19997;-76
2024/04/14 05:27:08;;;;;;;13.70;2.10;;;;;;;9.13;100.00;102338.84;5565586;25;19993;-76
2024/04/14 05:29:34;;;;;;;12.00;1.73;;;;;;;9.14;100.00;102342.38;5566044;25;20007;-76
2024/04/14 05:31:59;;;;;;;17.27;2.10;;;;;;;9.18;100.00;102350.06;5565375;25;19996;-78
2024/04/14 05:34:24;;;;;;;16.55;2.22;;;;;;;9.24;100.00;102350.63;5533352;25;20130;-78
2024/04/14 05:36:50;;;;;;;6.22;1.67;;;;;;;9.30;100.00;102347.59;5501812;25;19993;-78
2024/04/14 05:39:15;;;;;;;10.80;2.47;;;;;;;9.33;100.00;102342.97;5565599;25;20042;-78
2024/04/14 05:41:40;;;;;;;12.55;2.20;;;;;;;9.40;100.00;102347.91;5565841;25;20069;-77
2024/04/14 05:44:05;;;;;;;11.02;2.10;;;;;;;9.44;100.00;102352.94;5502354;25;20000;-77
2024/04/14 05:46:31;;;;;;;17.05;2.50;;;;;;;9.48;100.00;102348.28;5566003;25;20060;-77
2024/04/14 05:48:56;;;;;;;11.65;1.98;;;;;;;9.52;100.00;102355.97;5565389;25;19993;-77
2024/04/14 05:51:21;;;;;;;8.85;1.77;;;;;;;9.56;100.00;102350.47;5565467;25;20429;-78
2024/04/14 05:53:48;;;;;;;13.25;1.70;;;;;;;9.59;100.00;102355.59;5565717;25;19996;-78
2024/04/14 05:56:14;;;;;;;14.45;1.85;;;;;;;9.62;100.00;102358.91;5565335;25;20406;-78
2024/04/14 05:58:39;;;;;;;16.42;2.78;;;;;;;9.65;100.00;102365.84;5565388;25;20004;-78
2024/04/14 06:01:06;;;;;;;7.88;1.85;;;;;;;9.67;100.00;102377.22;5532415;25;19989;-78
2024/04/14 06:03:32;;;;;;;13.25;2.08;;;;;;;9.67;100.00;102356.84;5565655;25;20354;-77
2024/04/14 06:05:57;;;;;;;14.25;1.83;;;;;;;9.72;100.00;102372.47;5565583;25;20465;-77
2024/04/14 06:08:22;;;;;;;16.17;2.05;;;;;;;9.76;100.00;102379.28;5565601;25;19996;-76
2024/04/14 06:10:48;;;;;;;8.73;1.70;;;;;;;9.78;100.00;102385.38;5565589;25;20059;-77
2024/04/14 06:13:13;;;;;;;7.93;2.00;;;;;;;9.82;100.00;102388.69;5532415;25;20445;-77
2024/04/14 06:15:39;;;;;;;8.48;1.65;;;;;;;9.89;100.00;102379.38;5565290;25;20353;-77
2024/04/14 06:18:05;;;;;;;10.70;1.95;;;;;;;9.97;100.00;102376.25;5531887;25;20008;-77
2024/04/14 06:20:30;;;;;;;8.63;1.60;;;;;;;10.03;100.00;102378.50;5565106;25;20000;-77
2024/04/14 06:22:55;;;;;;;9.15;1.45;;;;;;;10.07;100.00;102386.19;5532023;25;20021;-77
2024/04/14 06:25:21;;;;;;;8.90;1.92;;;;;;;10.11;100.00;102392.19;5532015;25;19993;-77
2024/04/14 06:27:46;;;;;;;10.50;1.48;;;;;;;10.18;100.00;102396.16;5564543;25;20004;-76
2024/04/14 06:30:12;;;;;;;8.57;2.08;;;;;;;10.24;100.00;102409.06;5564479;25;19992;-77
2024/04/14 06:32:38;;;;;;;5.43;1.50;;;;;;;10.32;100.00;102407.72;5532983;25;20417;-77
2024/04/14 06:35:05;;;;;;;10.45;2.10;;;;;;;10.39;100.00;102406.41;5565402;25;20356;-77
2024/04/14 06:37:31;;;;;;;15.15;2.33;;;;;;;10.41;100.00;102405.34;5566424;25;20008;-78
2024/04/14 06:39:56;;;;;;;9.23;1.88;;;;;;;10.41;100.00;102405.34;5565218;25;20004;-79
2024/04/14 06:42:21;;;;;;;10.88;2.13;;;;;;;10.46;100.00;102404.19;5531727;25;20004;-77
2024/04/14 06:44:47;;;;;;;8.82;1.35;;;;;;;10.39;100.00;102403.75;5564695;25;19997;-78
2024/04/14 06:47:12;;;;;;;6.57;1.50;;;;;;;10.40;100.00;102413.41;5532111;25;19996;-78
2024/04/14 06:49:38;;;;;;;11.85;1.90;;;;;;;10.42;100.00;102403.53;5565122;25;19996;-79
2024/04/14 06:52:03;;;;;;;8.20;1.85;;;;;;;10.40;100.00;102413.41;5564429;25;20505;-78
2024/04/14 06:54:36;;;;;;;7.75;1.73;;;;;;;10.38;100.00;102421.50;5566354;25;19997;-77
2024/04/14 06:57:02;;;;;;;12.88;1.77;;;;;;;10.44;100.00;102414.94;5502258;25;19997;-77
2024/04/14 06:59:27;;;;;;;9.05;1.65;;;;;;;10.54;100.00;102416.03;5564742;25;19993;-78
2024/04/14 07:01:52;;;;;;;11.15;1.40;;;;;;;10.61;100.00;102416.47;5564372;25;20064;-78
2024/04/14 07:04:18;;;;;;;6.53;1.50;;;;;;;10.73;100.00;102420.13;5565436;25;20000;-77
2024/04/14 07:06:44;;;;;;;6.63;1.23;;;;;;;10.80;100.00;102418.78;5501514;25;20279;-79
2024/04/14 07:09:09;;;;;;;10.55;1.67;;;;;;;10.86;100.00;102417.53;5532219;25;20008;-77
2024/04/14 07:11:35;;;;;;;8.45;1.23;;;;;;;10.89;100.00;102412.00;5531247;25;20310;-79
2024/04/14 07:14:00;;;;;;;7.07;1.63;;;;;;;10.93;100.00;102414.34;5563988;25;19997;-79
2024/04/14 07:16:25;;;;;;;5.38;1.25;;;;;;;11.01;100.00;102423.63;5531792;25;20068;-79
2024/04/14 07:18:51;;;;;;;8.38;1.10;;;;;;;11.06;100.00;102417.06;5564309;25;19996;-79
2024/04/14 07:21:16;;;;;;;8.88;1.60;;;;;;;11.11;100.00;102427.38;5563896;25;20326;-79
2024/04/14 07:23:41;;;;;;;8.00;1.40;;;;;;;11.18;100.00;102419.81;5563862;25;20393;-79
2024/04/14 07:26:07;;;;;;;4.80;1.05;;;;;;;11.27;100.00;102428.06;5563989;25;19997;-79
2024/04/14 07:28:32;;;;;;;4.30;1.33;;;;;;;11.36;100.00;102429.25;5564517;25;20465;-80
2024/04/14 07:30:57;;;;;;;6.82;1.40;;;;;;;11.39;100.00;102434.34;5531526;25;20440;-80
2024/04/14 07:33:23;;;;;;;7.30;1.48;;;;;;;11.49;100.00;102441.72;5563593;25;19996;-82
2024/04/14 07:35:48;;;;;;;7.18;1.13;;;;;;;11.58;100.00;102441.06;5531111;25;20013;-80
2024/04/14 07:38:14;;;;;;;6.43;1.13;;;;;;;11.60;100.00;102444.50;5530894;25;19997;-80
2024/04/14 07:40:40;;;;;;;11.02;1.52;;;;;;;11.53;100.00;102449.38;5563939;25;19993;-81
2024/04/14 07:43:07;;;;;;;14.68;1.40;;;;;;;11.53;100.00;102445.88;5563911;25;20233;-79
2024/04/14 07:45:33;;;;;;;5.93;1.40;;;;;;;11.46;100.00;102448.09;5531359;25;20013;-81
2024/04/14 07:47:58;;;;;;;8.77;1.63;;;;;;;11.58;100.00;102441.06;5563712;25;20443;-82
2024/04/14 07:50:24;;;;;;;4.68;1.20;;;;;;;11.62;100.00;102451.41;5563574;25;20445;-80
2024/04/14 07:52:49;;;;;;;6.90;1.40;;;;;;;11.72;100.00;102451.63;5563935;25;20007;-80
2024/04/14 07:55:14;;;;;;;6.68;1.55;;;;;;;11.78;100.00;102458.34;5530692;25;20290;-82
2024/04/14 07:57:40;;;;;;;10.50;1.95;;;;;;;11.82;100.00;102459.81;5563626;25;19992;-80
2024/04/14 08:00:06;;;;;;;9.57;1.63;;;;;;;12.04;100.00;102456.53;5563344;25;19997;-81
2024/04/14 08:02:32;;;;;;;6.70;1.67;;;;;;;12.44;100.00;102452.81;5563716;25;19997;-79
2024/04/14 08:04:57;;;;;;;13.57;1.73;;;;;;;12.62;100.00;102456.78;5530720;25;20000;-80
2024/04/14 08:07:22;;;;;;;11.57;1.45;;;;;;;12.98;100.00;102460.34;5563061;25;20003;-78
2024/04/14 08:09:48;;;;;;;7.90;2.00;;;;;;;13.26;100.00;102462.78;5530319;25;19989;-79
2024/04/14 08:12:13;;;;;;;8.82;1.70;;;;;;;13.28;100.00;102463.50;5563331;25;19996;-81
2024/04/14 08:14:39;;;;;;;11.07;1.48;;;;;;;13.16;100.00;102462.63;5564053;25;19998;-82
2024/04/14 08:17:04;;;;;;;10.90;1.70;;;;;;;13.11;100.00;102457.63;5563339;25;19993;-84
2024/04/14 08:19:29;;;;;;;10.20;1.70;;;;;;;13.06;100.00;102457.09;5563394;25;20072;-82
2024/04/14 08:21:55;;;;;;;6.15;1.45;;;;;;;13.11;100.00;102454.94;5562287;25;20008;-82
2024/04/14 08:24:20;;;;;;;8.43;1.55;;;;;;;13.36;100.00;102453.97;5562656;25;20004;-80
2024/04/14 08:26:45;;;;;;;6.50;2.40;;;;;;;13.60;100.00;102455.72;5529086;25;20436;-86
2024/04/14 08:29:10;;;;;;;7.35;1.42;;;;;;;13.77;100.00;102445.53;5562907;25;20418;-81
2024/04/14 08:31:36;;;;;;;6.80;1.60;;;;;;;13.84;100.00;102452.06;5562284;25;20362;-80
2024/04/14 08:34:01;;;;;;;6.93;1.42;;;;;;;13.52;100.00;102455.44;5562279;25;20004;-81
2024/04/14 08:36:27;;;;;;;6.85;1.48;;;;;;;13.46;100.00;102447.91;5562067;25;19997;-80
2024/04/14 08:38:52;;;;;;;5.85;1.40;;;;;;;13.45;100.00;102447.06;5562516;25;20007;-79
2024/04/14 08:41:18;;;;;;;5.63;1.58;;;;;;;13.66;100.00;102446.34;5562018;25;20000;-80
2024/04/14 08:43:44;;;;;;;3.65;1.10;;;;;;;13.54;100.00;102458.84;5562267;25;20119;-82
2024/04/14 08:46:13;;;;;;;8.75;1.55;;;;;;;13.82;100.00;102454.03;5562217;25;20289;-87
2024/04/14 08:48:39;;;;;;;5.72;1.50;;;;;;;14.01;100.00;102456.09;5563146;25;20427;-80
2024/04/14 08:51:05;;;;;;;4.25;1.20;;;;;;;14.26;100.00;102452.31;5562251;25;19993;-79
2024/04/14 08:53:31;;;;;;;4.25;1.60;;;;;;;14.40;100.00;102459.22;5564691;25;20004;-80
2024/04/14 08:55:57;;;;;;;4.90;1.30;;;;;;;14.56;100.00;102456.97;5565697;25;20025;-79
2024/04/14 08:58:26;;;;;;;12.30;1.83;;;;;;;14.58;100.00;102456.84;5565299;25;19993;-80
2024/04/14 09:01:01;;;;;;;8.27;1.73;;;;;;;14.62;100.00;102456.50;5565498;25;20295;-80
2024/04/14 09:03:28;;;;;;;6.97;1.30;;;;;;;14.77;100.00;102462.41;5566271;25;20057;-80
2024/04/14 09:05:57;;;;;;;7.60;1.40;;;;;;;14.85;100.00;102461.78;5565475;25;20353;-78
2024/04/14 09:08:24;;;;;;;9.15;1.80;;;;;;;14.74;100.00;102472.56;5566076;25;20007;-80
2024/04/14 09:10:50;;;;;;;5.10;1.40;;;;;;;15.04;100.00;102474.50;5565931;25;20007;-79
2024/04/14 09:13:17;;;;;;;5.43;1.83;;;;;;;15.37;100.00;102475.31;5565739;25;20398;-79
2024/04/14 09:15:43;;;;;;;5.53;1.48;;;;;;;15.47;100.00;102481.59;5565492;25;20004;-80
2024/04/14 09:18:08;;;;;;;6.43;1.33;;;;;;;15.62;100.00;102471.38;5532880;25;19993;-78
2024/04/14 09:20:34;;;;;;;5.72;1.60;;;;;;;15.75;100.00;102483.72;5565917;25;19993;-79
2024/04/14 09:22:59;;;;;;;6.32;1.42;;;;;;;15.74;100.00;102474.81;5566045;25;19996;-78
2024/04/14 09:25:25;;;;;;;8.00;1.58;;;;;;;16.17;100.00;102467.56;5565472;25;20412;-78
2024/04/14 09:28:00;;;;;;;7.03;1.75;;;;;;;16.69;100.00;102472.75;5565356;25;20449;-78
2024/04/14 09:30:26;;;;;;;5.57;1.08;;;;;;;16.92;100.00;102479.59;5566288;25;19997;-79
2024/04/14 09:32:52;;;;;;;8.73;1.92;;;;;;;17.48;100.00;102474.47;5565944;25;19993;-79
2024/04/14 09:35:18;;;;;;;4.55;1.38;;;;;;;17.69;100.00;102473.38;5565957;25;20033;-82
2024/04/14 09:37:44;;;;;;;10.27;2.03;;;;;;;16.54;100.00;102485.72;5565178;25;19992;-80
2024/04/14 09:40:12;;;;;;;10.80;1.80;;;;;;;16.28;100.00;102483.53;5565759;25;20021;-78
2024/04/14 09:42:38;;;;;;;9.82;1.60;;;;;;;16.99;100.00;102477.19;5565378;25;20437;-80
2024/04/14 09:45:04;;;;;;;6.43;1.60;;;;;;;17.77;100.00;102477.03;5565261;25;20170;-81
2024/04/14 09:47:30;;;;;;;10.20;2.47;;;;;;;18.26;100.00;102474.19;5565115;25;20309;-77
2024/04/14 09:49:56;;;;;;;5.93;1.50;;;;;;;18.20;100.00;102477.47;5565930;25;19993;-79
2024/04/14 09:52:22;;;;;;;9.57;1.75;;;;;;;18.61;100.00;102483.31;5565208;25;20064;-79
2024/04/14 09:54:48;;;;;;;9.90;1.92;;;;;;;18.44;100.00;102495.78;5564936;25;19993;-79
2024/04/14 09:57:14;;;;;;;7.82;1.60;;;;;;;18.40;100.00;102482.75;5564969;25;19997;-79
2024/04/14 09:59:39;;;;;;;10.15;1.70;;;;;;;18.40;100.00;102490.84;5565092;25;20401;-79
2024/04/14 10:02:11;;;;;;;7.75;1.52;;;;;;;18.23;100.00;102487.94;5564862;25;20004;-78
2024/04/14 10:04:41;;;;;;;11.13;1.90;;;;;;;17.56;100.00;102504.16;5531511;25;20000;-78
2024/04/14 10:07:07;;;;;;;10.75;1.90;;;;;;;17.73;100.00;102509.78;5565636;25;19996;-81
2024/04/14 10:09:34;;;;;;;7.28;2.08;;;;;;;17.38;100.00;102504.06;5564915;25;20072;-79
2024/04/14 10:12:00;;;;;;;7.50;1.75;;;;;;;16.83;100.00;102498.38;5564854;25;19996;-79
2024/04/14 10:14:27;;;;;;;4.97;1.30;;;;;;;16.73;100.00;102495.66;5564842;25;20071;-80
2024/04/14 10:16:56;;;;;;;11.65;1.73;;;;;;;16.04;100.00;102483.88;5565091;25;20328;-78
2024/04/14 10:19:21;;;;;;;6.53;1.70;;;;;;;16.44;100.00;102480.34;5564745;25;20007;-77
2024/04/14 10:21:47;;;;;;;10.48;1.67;;;;;;;17.06;100.00;102491.78;5564289;25;19988;-78
2024/04/14 10:24:12;;;;;;;10.73;1.63;;;;;;;16.87;100.00;102491.78;5564291;25;20441;-78
2024/04/14 10:26:37;;;;;;;7.28;1.50;;;;;;;17.32;100.00;102496.56;5531097;25;20021;-78
2024/04/14 10:29:06;;;;;;;7.57;1.60;;;;;;;17.79;100.00;102493.91;5564835;25;19992;-79
2024/04/14 10:31:34;;;;;;;8.63;1.70;;;;;;;17.98;100.00;102493.00;5564958;25;20080;-76
2024/04/14 10:34:07;;;;;;;9.65;1.70;;;;;;;17.73;100.00;102491.78;5564690;25;20024;-80
2024/04/14 10:36:34;;;;;;;4.53;1.80;;;;;;;17.49;100.00;102483.38;5564596;25;20003;-84
2024/04/14 10:39:01;;;;;;;8.25;1.58;;;;;;;17.68;100.00;102485.16;5565152;25;19992;-83
2024/04/14 10:41:27;;;;;;;8.80;1.75;;;;;;;17.51;100.00;102484.94;5531637;25;20024;-83
2024/04/14 10:43:52;;;;;;;7.90;2.03;;;;;;;17.28;100.00;102476.31;5563972;25;20008;-86
2024/04/14 10:46:18;;;;;;;5.82;1.40;;;;;;;17.40;100.00;102485.06;5564603;25;20304;-82
2024/04/14 10:48:44;;;;;;;7.93;1.40;;;;;;;17.75;100.00;102479.06;5564256;25;19997;-83
2024/04/14 10:51:10;;;;;;;3.75;1.15;;;;;;;18.07;100.00;102477.81;5564241;25;20062;-81
2024/04/14 10:53:36;;;;;;;5.47;1.90;;;;;;;18.21;100.00;102463.00;5531364;25;20005;-80
2024/04/14 10:56:02;;;;;;;7.35;1.77;;;;;;;18.92;100.00;102469.50;5564050;25;19997;-81
2024/04/14 10:58:31;;;;;;;7.70;1.63;;;;;;;19.33;100.00;102464.44;5563610;25;19993;-79
2024/04/14 11:00:57;;;;;;;5.35;1.92;;;;;;;19.78;100.00;102456.28;5564037;25;20007;-81
2024/04/14 11:03:23;;;;;;;12.68;2.13;;;;;;;20.15;100.00;102460.50;5564573;25;20329;-79
2024/04/14 11:05:50;;;;;;;6.65;2.30;;;;;;;20.42;100.00;102452.16;5564015;25;20375;-78
2024/04/14 11:08:15;;;;;;;9.75;2.20;;;;;;;21.00;100.00;102454.13;5531597;25;19993;-81
2024/04/14 11:10:43;;;;;;;8.25;1.80;;;;;;;20.71;100.00;102450.88;5563890;25;20000;-79